sensor_id;sensor_type;location;lat;lon;timestamp;P1;durP1;ratioP1;P2;durP2;ratioP2
21741;SDS011;11033;47.490;11.116;2023-08-30T00:02:17;1.93;;;1.83;;
21741;SDS011;11033;47.490;11.116;2023-08-30T00:04:43;3.58;;;1.90;;
21741;SDS011;11033;47.490;11.116;2023-08-30T00:07:08;2.10;;;2.00;;
21741;SDS011;11033;47.490;11.116;2023-08-30T00:09:33;3.33;;;1.63;;
21741;SDS011;11033;47.490;11.116;2023-08-30T00:12:01;2.08;;;1.92;;
21741;SDS011;11033;47.490;11.116;2023-08-30T00:14:26;1.80;;;1.70;;
21741;SDS011;11033;47.490;11.116;2023-08-30T00:16:51;5.23;;;2.30;;
21741;SDS011;11033;47.490;11.116;2023-08-30T00:19:16;2.20;;;2.00;;
21741;SDS011;11033;47.490;11.116;2023-08-30T00:21:42;1.83;;;1.70;;
21741;SDS011;11033;47.490;11.116;2023-08-30T00:24:07;2.00;;;1.90;;
21741;SDS011;11033;47.490;11.116;2023-08-30T00:26:33;1.73;;;1.63;;
21741;SDS011;11033;47.490;11.116;2023-08-30T00:28:58;2.17;;;1.90;;
21741;SDS011;11033;47.490;11.116;2023-08-30T00:31:23;3.63;;;2.03;;
21741;SDS011;11033;47.490;11.116;2023-08-30T00:33:48;2.20;;;2.00;;
21741;SDS011;11033;47.490;11.116;2023-08-30T00:36:13;2.30;;;1.70;;
21741;SDS011;11033;47.490;11.116;2023-08-30T00:38:39;1.80;;;1.70;;
21741;SDS011;11033;47.490;11.116;2023-08-30T00:41:04;1.67;;;1.57;;
21741;SDS011;11033;47.490;11.116;2023-08-30T00:43:29;1.73;;;1.63;;
21741;SDS011;11033;47.490;11.116;2023-08-30T00:45:54;2.90;;;1.50;;
21741;SDS011;11033;47.490;11.116;2023-08-30T00:48:19;2.30;;;1.70;;
21741;SDS011;11033;47.490;11.116;2023-08-30T00:50:45;1.70;;;1.60;;
21741;SDS011;11033;47.490;11.116;2023-08-30T00:53:11;1.67;;;1.58;;
21741;SDS011;11033;47.490;11.116;2023-08-30T00:55:36;2.97;;;1.85;;
21741;SDS011;11033;47.490;11.116;2023-08-30T00:58:02;3.15;;;1.48;;
21741;SDS011;11033;47.490;11.116;2023-08-30T01:00:28;1.92;;;1.60;;
21741;SDS011;11033;47.490;11.116;2023-08-30T01:02:55;2.25;;;1.63;;
21741;SDS011;11033;47.490;11.116;2023-08-30T01:05:20;1.73;;;1.40;;
21741;SDS011;11033;47.490;11.116;2023-08-30T01:07:45;3.07;;;1.80;;
21741;SDS011;11033;47.490;11.116;2023-08-30T01:10:10;2.40;;;1.90;;
21741;SDS011;11033;47.490;11.116;2023-08-30T01:12:52;1.80;;;1.70;;
21741;SDS011;11033;47.490;11.116;2023-08-30T01:15:18;1.63;;;1.52;;
21741;SDS011;11033;47.490;11.116;2023-08-30T01:17:44;1.80;;;1.63;;
21741;SDS011;11033;47.490;11.116;2023-08-30T01:20:09;1.50;;;1.40;;
21741;SDS011;11033;47.490;11.116;2023-08-30T01:25:43;1.73;;;1.50;;
21741;SDS011;11033;47.490;11.116;2023-08-30T01:28:10;1.90;;;1.58;;
21741;SDS011;11033;47.490;11.116;2023-08-30T01:30:37;1.27;;;1.27;;
21741;SDS011;11033;47.490;11.116;2023-08-30T01:33:04;1.77;;;1.67;;
21741;SDS011;11033;47.490;11.116;2023-08-30T01:35:31;2.35;;;1.55;;
21741;SDS011;11033;47.490;11.116;2023-08-30T01:37:58;2.95;;;1.80;;
21741;SDS011;11033;47.490;11.116;2023-08-30T01:40:23;1.50;;;1.40;;
21741;SDS011;11033;47.490;11.116;2023-08-30T01:42:49;1.52;;;1.42;;
21741;SDS011;11033;47.490;11.116;2023-08-30T01:45:15;3.55;;;2.03;;
21741;SDS011;11033;47.490;11.116;2023-08-30T01:47:41;1.63;;;1.52;;
21741;SDS011;11033;47.490;11.116;2023-08-30T01:50:07;2.70;;;1.48;;
21741;SDS011;11033;47.490;11.116;2023-08-30T01:52:33;5.53;;;1.50;;
21741;SDS011;11033;47.490;11.116;2023-08-30T01:54:58;2.00;;;1.80;;
21741;SDS011;11033;47.490;11.116;2023-08-30T01:57:24;1.70;;;1.60;;
21741;SDS011;11033;47.490;11.116;2023-08-30T01:59:50;1.50;;;1.40;;
21741;SDS011;11033;47.490;11.116;2023-08-30T02:02:15;1.70;;;1.60;;
21741;SDS011;11033;47.490;11.116;2023-08-30T02:04:40;2.60;;;1.53;;
21741;SDS011;11033;47.490;11.116;2023-08-30T02:07:08;1.90;;;1.80;;
21741;SDS011;11033;47.490;11.116;2023-08-30T02:09:42;2.58;;;1.60;;
21741;SDS011;11033;47.490;11.116;2023-08-30T02:12:11;2.63;;;1.80;;
21741;SDS011;11033;47.490;11.116;2023-08-30T02:14:38;1.98;;;1.83;;
21741;SDS011;11033;47.490;11.116;2023-08-30T02:17:04;2.13;;;1.60;;
21741;SDS011;11033;47.490;11.116;2023-08-30T02:19:29;1.60;;;1.50;;
21741;SDS011;11033;47.490;11.116;2023-08-30T02:21:55;1.92;;;1.70;;
21741;SDS011;11033;47.490;11.116;2023-08-30T02:24:20;2.37;;;1.30;;
21741;SDS011;11033;47.490;11.116;2023-08-30T02:26:45;5.63;;;2.70;;
21741;SDS011;11033;47.490;11.116;2023-08-30T02:29:10;3.23;;;1.50;;
21741;SDS011;11033;47.490;11.116;2023-08-30T02:31:35;3.27;;;1.80;;
21741;SDS011;11033;47.490;11.116;2023-08-30T02:34:01;2.63;;;1.60;;
21741;SDS011;11033;47.490;11.116;2023-08-30T02:36:27;2.13;;;2.03;;
21741;SDS011;11033;47.490;11.116;2023-08-30T02:38:52;2.60;;;2.37;;
21741;SDS011;11033;47.490;11.116;2023-08-30T02:41:17;3.13;;;1.90;;
21741;SDS011;11033;47.490;11.116;2023-08-30T02:43:42;2.63;;;1.93;;
21741;SDS011;11033;47.490;11.116;2023-08-30T02:46:08;2.50;;;1.60;;
21741;SDS011;11033;47.490;11.116;2023-08-30T02:48:33;2.40;;;2.10;;
21741;SDS011;11033;47.490;11.116;2023-08-30T02:50:58;2.47;;;1.80;;
21741;SDS011;11033;47.490;11.116;2023-08-30T02:53:23;1.63;;;1.53;;
21741;SDS011;11033;47.490;11.116;2023-08-30T02:55:49;2.55;;;1.70;;
21741;SDS011;11033;47.490;11.116;2023-08-30T02:58:14;2.13;;;1.90;;
21741;SDS011;11033;47.490;11.116;2023-08-30T03:00:39;2.33;;;2.00;;
21741;SDS011;11033;47.490;11.116;2023-08-30T03:03:04;3.30;;;2.00;;
21741;SDS011;11033;47.490;11.116;2023-08-30T03:05:29;5.20;;;2.30;;
21741;SDS011;11033;47.490;11.116;2023-08-30T03:07:54;3.60;;;1.73;;
21741;SDS011;11033;47.490;11.116;2023-08-30T03:10:20;1.88;;;1.73;;
21741;SDS011;11033;47.490;11.116;2023-08-30T03:12:45;1.80;;;1.70;;
21741;SDS011;11033;47.490;11.116;2023-08-30T03:15:10;2.20;;;1.90;;
21741;SDS011;11033;47.490;11.116;2023-08-30T03:17:35;5.53;;;1.60;;
21741;SDS011;11033;47.490;11.116;2023-08-30T03:20:01;1.83;;;1.73;;
21741;SDS011;11033;47.490;11.116;2023-08-30T03:22:28;2.15;;;1.95;;
21741;SDS011;11033;47.490;11.116;2023-08-30T03:24:53;2.67;;;1.50;;
21741;SDS011;11033;47.490;11.116;2023-08-30T03:27:18;3.25;;;1.80;;
21741;SDS011;11033;47.490;11.116;2023-08-30T03:29:44;3.63;;;1.75;;
21741;SDS011;11033;47.490;11.116;2023-08-30T03:32:10;1.73;;;1.63;;
21741;SDS011;11033;47.490;11.116;2023-08-30T03:34:35;4.40;;;2.45;;
21741;SDS011;11033;47.490;11.116;2023-08-30T03:37:00;2.13;;;2.03;;
21741;SDS011;11033;47.490;11.116;2023-08-30T03:39:25;3.50;;;2.13;;
21741;SDS011;11033;47.490;11.116;2023-08-30T03:41:51;3.57;;;2.30;;
21741;SDS011;11033;47.490;11.116;2023-08-30T03:44:16;2.63;;;1.87;;
21741;SDS011;11033;47.490;11.116;2023-08-30T03:46:41;1.80;;;1.65;;
21741;SDS011;11033;47.490;11.116;2023-08-30T03:49:06;2.60;;;1.70;;
21741;SDS011;11033;47.490;11.116;2023-08-30T03:51:32;2.27;;;1.50;;
21741;SDS011;11033;47.490;11.116;2023-08-30T03:53:57;5.80;;;2.13;;
21741;SDS011;11033;47.490;11.116;2023-08-30T03:56:22;2.83;;;2.20;;
21741;SDS011;11033;47.490;11.116;2023-08-30T03:58:48;2.33;;;1.98;;
21741;SDS011;11033;47.490;11.116;2023-08-30T04:01:13;2.03;;;1.60;;
21741;SDS011;11033;47.490;11.116;2023-08-30T04:03:38;2.40;;;1.90;;
21741;SDS011;11033;47.490;11.116;2023-08-30T04:06:03;1.97;;;1.87;;
21741;SDS011;11033;47.490;11.116;2023-08-30T04:08:28;3.63;;;2.03;;
21741;SDS011;11033;47.490;11.116;2023-08-30T04:10:54;3.33;;;1.60;;
21741;SDS011;11033;47.490;11.116;2023-08-30T04:13:19;2.20;;;2.10;;
21741;SDS011;11033;47.490;11.116;2023-08-30T04:15:44;2.10;;;2.00;;
21741;SDS011;11033;47.490;11.116;2023-08-30T04:18:09;2.20;;;1.90;;
21741;SDS011;11033;47.490;11.116;2023-08-30T04:20:34;3.05;;;1.85;;
21741;SDS011;11033;47.490;11.116;2023-08-30T04:23:00;1.80;;;1.70;;
21741;SDS011;11033;47.490;11.116;2023-08-30T04:25:29;3.15;;;1.95;;
21741;SDS011;11033;47.490;11.116;2023-08-30T04:27:54;1.70;;;1.60;;
21741;SDS011;11033;47.490;11.116;2023-08-30T04:30:19;2.37;;;2.10;;
21741;SDS011;11033;47.490;11.116;2023-08-30T04:32:44;2.20;;;2.10;;
21741;SDS011;11033;47.490;11.116;2023-08-30T04:35:10;2.67;;;1.67;;
21741;SDS011;11033;47.490;11.116;2023-08-30T04:37:35;2.92;;;2.58;;
21741;SDS011;11033;47.490;11.116;2023-08-30T04:40:00;5.67;;;3.20;;
21741;SDS011;11033;47.490;11.116;2023-08-30T04:42:26;2.80;;;2.45;;
21741;SDS011;11033;47.490;11.116;2023-08-30T04:44:51;2.10;;;2.00;;
21741;SDS011;11033;47.490;11.116;2023-08-30T04:47:17;3.78;;;2.60;;
21741;SDS011;11033;47.490;11.116;2023-08-30T04:49:42;2.10;;;1.87;;
21741;SDS011;11033;47.490;11.116;2023-08-30T04:52:07;2.17;;;2.07;;
21741;SDS011;11033;47.490;11.116;2023-08-30T04:54:32;2.42;;;2.22;;
21741;SDS011;11033;47.490;11.116;2023-08-30T04:56:57;2.67;;;2.07;;
21741;SDS011;11033;47.490;11.116;2023-08-30T04:59:23;2.17;;;2.03;;
21741;SDS011;11033;47.490;11.116;2023-08-30T05:01:49;2.90;;;2.60;;
21741;SDS011;11033;47.490;11.116;2023-08-30T05:04:14;3.30;;;2.10;;
21741;SDS011;11033;47.490;11.116;2023-08-30T05:06:40;3.40;;;2.17;;
21741;SDS011;11033;47.490;11.116;2023-08-30T05:09:05;2.40;;;2.20;;
21741;SDS011;11033;47.490;11.116;2023-08-30T05:11:31;2.00;;;1.77;;
21741;SDS011;11033;47.490;11.116;2023-08-30T05:13:56;1.97;;;1.77;;
21741;SDS011;11033;47.490;11.116;2023-08-30T05:16:21;2.67;;;2.20;;
21741;SDS011;11033;47.490;11.116;2023-08-30T05:18:46;4.10;;;3.50;;
21741;SDS011;11033;47.490;11.116;2023-08-30T05:21:15;3.88;;;2.22;;
21741;SDS011;11033;47.490;11.116;2023-08-30T05:23:40;2.70;;;2.50;;
21741;SDS011;11033;47.490;11.116;2023-08-30T05:26:09;2.33;;;1.90;;
21741;SDS011;11033;47.490;11.116;2023-08-30T05:28:34;2.15;;;2.05;;
21741;SDS011;11033;47.490;11.116;2023-08-30T05:30:59;2.23;;;2.03;;
21741;SDS011;11033;47.490;11.116;2023-08-30T05:33:25;2.37;;;2.17;;
21741;SDS011;11033;47.490;11.116;2023-08-30T05:35:50;2.40;;;2.20;;
21741;SDS011;11033;47.490;11.116;2023-08-30T05:38:15;2.67;;;2.47;;
21741;SDS011;11033;47.490;11.116;2023-08-30T05:40:40;2.50;;;2.30;;
21741;SDS011;11033;47.490;11.116;2023-08-30T05:43:09;2.35;;;2.25;;
21741;SDS011;11033;47.490;11.116;2023-08-30T05:45:34;4.83;;;2.90;;
21741;SDS011;11033;47.490;11.116;2023-08-30T05:48:00;3.30;;;2.47;;
21741;SDS011;11033;47.490;11.116;2023-08-30T05:50:25;3.07;;;2.77;;
21741;SDS011;11033;47.490;11.116;2023-08-30T05:52:50;3.33;;;2.40;;
21741;SDS011;11033;47.490;11.116;2023-08-30T05:55:16;2.80;;;2.60;;
21741;SDS011;11033;47.490;11.116;2023-08-30T05:57:41;4.30;;;3.30;;
21741;SDS011;11033;47.490;11.116;2023-08-30T06:00:07;2.85;;;2.65;;
21741;SDS011;11033;47.490;11.116;2023-08-30T06:02:33;3.55;;;2.47;;
21741;SDS011;11033;47.490;11.116;2023-08-30T06:04:58;3.40;;;3.00;;
21741;SDS011;11033;47.490;11.116;2023-08-30T06:07:23;5.43;;;2.83;;
21741;SDS011;11033;47.490;11.116;2023-08-30T06:09:49;3.53;;;3.17;;
21741;SDS011;11033;47.490;11.116;2023-08-30T06:12:14;3.97;;;3.00;;
21741;SDS011;11033;47.490;11.116;2023-08-30T06:14:39;3.00;;;2.70;;
21741;SDS011;11033;47.490;11.116;2023-08-30T06:17:04;2.80;;;2.60;;
21741;SDS011;11033;47.490;11.116;2023-08-30T06:19:29;2.77;;;2.57;;
21741;SDS011;11033;47.490;11.116;2023-08-30T06:21:55;2.97;;;2.70;;
21741;SDS011;11033;47.490;11.116;2023-08-30T06:24:20;2.63;;;2.43;;
21741;SDS011;11033;47.490;11.116;2023-08-30T06:26:45;2.65;;;2.45;;
21741;SDS011;11033;47.490;11.116;2023-08-30T06:29:10;3.17;;;2.60;;
21741;SDS011;11033;47.490;11.116;2023-08-30T06:31:35;3.90;;;3.47;;
21741;SDS011;11033;47.490;11.116;2023-08-30T06:34:00;3.90;;;3.17;;
21741;SDS011;11033;47.490;11.116;2023-08-30T06:36:26;3.17;;;2.90;;
21741;SDS011;11033;47.490;11.116;2023-08-30T06:38:51;3.20;;;3.00;;
21741;SDS011;11033;47.490;11.116;2023-08-30T06:41:16;3.10;;;2.87;;
21741;SDS011;11033;47.490;11.116;2023-08-30T06:43:41;3.77;;;3.47;;
21741;SDS011;11033;47.490;11.116;2023-08-30T06:46:06;3.03;;;2.83;;
21741;SDS011;11033;47.490;11.116;2023-08-30T06:48:31;3.23;;;2.93;;
21741;SDS011;11033;47.490;11.116;2023-08-30T06:50:57;3.55;;;3.35;;
21741;SDS011;11033;47.490;11.116;2023-08-30T06:53:22;3.50;;;3.20;;
21741;SDS011;11033;47.490;11.116;2023-08-30T06:55:56;3.97;;;2.93;;
21741;SDS011;11033;47.490;11.116;2023-08-30T06:58:21;3.97;;;3.13;;
21741;SDS011;11033;47.490;11.116;2023-08-30T07:00:46;4.17;;;3.20;;
21741;SDS011;11033;47.490;11.116;2023-08-30T07:03:11;3.60;;;3.30;;
21741;SDS011;11033;47.490;11.116;2023-08-30T07:05:37;4.10;;;3.60;;
21741;SDS011;11033;47.490;11.116;2023-08-30T07:08:02;6.32;;;3.70;;
21741;SDS011;11033;47.490;11.116;2023-08-30T07:10:27;4.10;;;3.60;;
21741;SDS011;11033;47.490;11.116;2023-08-30T07:12:52;3.50;;;3.30;;
21741;SDS011;11033;47.490;11.116;2023-08-30T07:15:18;4.10;;;3.70;;
21741;SDS011;11033;47.490;11.116;2023-08-30T07:17:43;4.70;;;3.47;;
21741;SDS011;11033;47.490;11.116;2023-08-30T07:20:08;3.58;;;2.97;;
21741;SDS011;11033;47.490;11.116;2023-08-30T07:22:34;3.47;;;3.17;;
21741;SDS011;11033;47.490;11.116;2023-08-30T07:24:59;3.30;;;3.00;;
21741;SDS011;11033;47.490;11.116;2023-08-30T07:27:24;3.83;;;3.53;;
21741;SDS011;11033;47.490;11.116;2023-08-30T07:29:49;5.80;;;3.63;;
21741;SDS011;11033;47.490;11.116;2023-08-30T07:32:15;3.20;;;3.00;;
21741;SDS011;11033;47.490;11.116;2023-08-30T07:34:40;3.63;;;3.35;;
21741;SDS011;11033;47.490;11.116;2023-08-30T07:37:05;3.88;;;3.22;;
21741;SDS011;11033;47.490;11.116;2023-08-30T07:39:40;3.75;;;3.05;;
21741;SDS011;11033;47.490;11.116;2023-08-30T07:42:05;3.67;;;3.23;;
21741;SDS011;11033;47.490;11.116;2023-08-30T07:44:32;4.13;;;3.80;;
21741;SDS011;11033;47.490;11.116;2023-08-30T07:46:57;4.40;;;3.60;;
21741;SDS011;11033;47.490;11.116;2023-08-30T07:49:22;3.83;;;3.50;;
21741;SDS011;11033;47.490;11.116;2023-08-30T07:51:47;3.67;;;3.37;;
21741;SDS011;11033;47.490;11.116;2023-08-30T07:54:12;4.57;;;4.13;;
21741;SDS011;11033;47.490;11.116;2023-08-30T07:56:37;4.33;;;3.90;;
21741;SDS011;11033;47.490;11.116;2023-08-30T07:59:03;4.17;;;3.97;;
21741;SDS011;11033;47.490;11.116;2023-08-30T08:01:28;4.77;;;4.50;;
21741;SDS011;11033;47.490;11.116;2023-08-30T08:03:54;4.88;;;4.57;;
21741;SDS011;11033;47.490;11.116;2023-08-30T08:06:19;5.25;;;4.80;;
21741;SDS011;11033;47.490;11.116;2023-08-30T08:08:44;5.10;;;4.80;;
21741;SDS011;11033;47.490;11.116;2023-08-30T08:11:09;6.13;;;5.67;;
21741;SDS011;11033;47.490;11.116;2023-08-30T08:13:34;5.43;;;5.13;;
21741;SDS011;11033;47.490;11.116;2023-08-30T08:15:59;6.97;;;6.47;;
21741;SDS011;11033;47.490;11.116;2023-08-30T08:18:25;6.13;;;5.63;;
21741;SDS011;11033;47.490;11.116;2023-08-30T08:20:50;6.33;;;6.03;;
21741;SDS011;11033;47.490;11.116;2023-08-30T08:23:15;6.47;;;6.18;;
21741;SDS011;11033;47.490;11.116;2023-08-30T08:25:41;6.32;;;6.03;;
21741;SDS011;11033;47.490;11.116;2023-08-30T08:28:06;7.07;;;6.77;;
21741;SDS011;11033;47.490;11.116;2023-08-30T08:30:31;7.20;;;6.83;;
21741;SDS011;11033;47.490;11.116;2023-08-30T08:32:57;7.70;;;7.40;;
21741;SDS011;11033;47.490;11.116;2023-08-30T08:35:22;7.68;;;7.30;;
21741;SDS011;11033;47.490;11.116;2023-08-30T08:37:47;7.87;;;7.47;;
21741;SDS011;11033;47.490;11.116;2023-08-30T08:40:12;7.33;;;6.93;;
21741;SDS011;11033;47.490;11.116;2023-08-30T08:42:38;7.83;;;7.33;;
21741;SDS011;11033;47.490;11.116;2023-08-30T08:45:03;7.80;;;7.20;;
21741;SDS011;11033;47.490;11.116;2023-08-30T08:47:32;8.23;;;7.82;;
21741;SDS011;11033;47.490;11.116;2023-08-30T08:49:57;8.00;;;7.50;;
21741;SDS011;11033;47.490;11.116;2023-08-30T08:52:26;8.75;;;8.30;;
21741;SDS011;11033;47.490;11.116;2023-08-30T08:54:51;8.63;;;8.13;;
21741;SDS011;11033;47.490;11.116;2023-08-30T08:57:16;8.43;;;7.97;;
21741;SDS011;11033;47.490;11.116;2023-08-30T08:59:42;8.35;;;7.88;;
21741;SDS011;11033;47.490;11.116;2023-08-30T09:02:08;7.30;;;7.00;;
21741;SDS011;11033;47.490;11.116;2023-08-30T09:04:35;8.15;;;7.75;;
21741;SDS011;11033;47.490;11.116;2023-08-30T09:07:00;8.23;;;7.83;;
21741;SDS011;11033;47.490;11.116;2023-08-30T09:09:25;7.73;;;7.33;;
21741;SDS011;11033;47.490;11.116;2023-08-30T09:11:51;8.32;;;7.93;;
21741;SDS011;11033;47.490;11.116;2023-08-30T09:14:16;8.35;;;7.85;;
21741;SDS011;11033;47.490;11.116;2023-08-30T09:16:42;7.85;;;7.45;;
21741;SDS011;11033;47.490;11.116;2023-08-30T09:19:07;8.23;;;7.83;;
21741;SDS011;11033;47.490;11.116;2023-08-30T09:21:34;8.50;;;8.10;;
21741;SDS011;11033;47.490;11.116;2023-08-30T09:24:00;8.30;;;7.90;;
21741;SDS011;11033;47.490;11.116;2023-08-30T09:26:26;8.40;;;8.00;;
21741;SDS011;11033;47.490;11.116;2023-08-30T09:28:53;8.52;;;8.02;;
21741;SDS011;11033;47.490;11.116;2023-08-30T09:31:18;8.57;;;8.17;;
21741;SDS011;11033;47.490;11.116;2023-08-30T09:33:45;8.63;;;8.23;;
21741;SDS011;11033;47.490;11.116;2023-08-30T09:36:10;7.22;;;6.90;;
21741;SDS011;11033;47.490;11.116;2023-08-30T09:38:36;8.43;;;8.02;;
21741;SDS011;11033;47.490;11.116;2023-08-30T09:41:05;8.45;;;7.95;;
21741;SDS011;11033;47.490;11.116;2023-08-30T09:43:30;8.43;;;7.97;;
21741;SDS011;11033;47.490;11.116;2023-08-30T09:45:56;8.95;;;8.35;;
21741;SDS011;11033;47.490;11.116;2023-08-30T09:48:22;8.65;;;8.10;;
21741;SDS011;11033;47.490;11.116;2023-08-30T09:50:49;8.02;;;7.72;;
21741;SDS011;11033;47.490;11.116;2023-08-30T09:53:17;7.63;;;7.32;;
21741;SDS011;11033;47.490;11.116;2023-08-30T09:55:42;8.18;;;7.88;;
21741;SDS011;11033;47.490;11.116;2023-08-30T09:58:08;8.18;;;7.78;;
21741;SDS011;11033;47.490;11.116;2023-08-30T10:00:34;8.30;;;7.72;;
21741;SDS011;11033;47.490;11.116;2023-08-30T10:03:00;8.00;;;7.60;;
21741;SDS011;11033;47.490;11.116;2023-08-30T10:05:26;8.40;;;7.90;;
21741;SDS011;11033;47.490;11.116;2023-08-30T10:07:54;7.40;;;7.10;;
21741;SDS011;11033;47.490;11.116;2023-08-30T10:10:20;8.18;;;7.78;;
21741;SDS011;11033;47.490;11.116;2023-08-30T10:12:46;7.72;;;7.43;;
21741;SDS011;11033;47.490;11.116;2023-08-30T10:15:12;7.50;;;7.20;;
21741;SDS011;11033;47.490;11.116;2023-08-30T10:17:37;8.40;;;7.80;;
21741;SDS011;11033;47.490;11.116;2023-08-30T10:20:04;7.72;;;7.35;;
21741;SDS011;11033;47.490;11.116;2023-08-30T10:22:29;8.00;;;7.60;;
21741;SDS011;11033;47.490;11.116;2023-08-30T10:25:02;8.63;;;8.20;;
21741;SDS011;11033;47.490;11.116;2023-08-30T10:27:29;8.63;;;8.23;;
21741;SDS011;11033;47.490;11.116;2023-08-30T10:29:56;11.18;;;10.48;;
21741;SDS011;11033;47.490;11.116;2023-08-30T10:32:21;12.13;;;11.00;;
21741;SDS011;11033;47.490;11.116;2023-08-30T10:34:47;13.13;;;12.13;;
21741;SDS011;11033;47.490;11.116;2023-08-30T10:37:13;15.32;;;13.95;;
21741;SDS011;11033;47.490;11.116;2023-08-30T10:39:39;13.50;;;12.30;;
21741;SDS011;11033;47.490;11.116;2023-08-30T10:42:11;10.45;;;9.85;;
21741;SDS011;11033;47.490;11.116;2023-08-30T10:47:23;13.73;;;12.63;;
21741;SDS011;11033;47.490;11.116;2023-08-30T10:49:48;16.80;;;15.23;;
21741;SDS011;11033;47.490;11.116;2023-08-30T10:52:14;16.63;;;15.20;;
21741;SDS011;11033;47.490;11.116;2023-08-30T10:54:39;12.65;;;11.65;;
21741;SDS011;11033;47.490;11.116;2023-08-30T10:57:04;11.97;;;11.07;;
21741;SDS011;11033;47.490;11.116;2023-08-30T10:59:30;12.17;;;11.37;;
21741;SDS011;11033;47.490;11.116;2023-08-30T11:01:55;13.70;;;12.60;;
21741;SDS011;11033;47.490;11.116;2023-08-30T11:04:23;15.65;;;14.35;;
21741;SDS011;11033;47.490;11.116;2023-08-30T11:06:50;15.57;;;14.32;;
21741;SDS011;11033;47.490;11.116;2023-08-30T11:09:16;14.80;;;13.52;;
21741;SDS011;11033;47.490;11.116;2023-08-30T11:11:45;15.75;;;14.55;;
21741;SDS011;11033;47.490;11.116;2023-08-30T11:14:11;15.02;;;13.82;;
21741;SDS011;11033;47.490;11.116;2023-08-30T11:16:36;12.48;;;11.57;;
21741;SDS011;11033;47.490;11.116;2023-08-30T11:19:02;10.73;;;9.90;;
21741;SDS011;11033;47.490;11.116;2023-08-30T11:21:28;9.13;;;8.73;;
21741;SDS011;11033;47.490;11.116;2023-08-30T11:23:54;8.70;;;8.30;;
21741;SDS011;11033;47.490;11.116;2023-08-30T11:26:19;8.73;;;8.27;;
21741;SDS011;11033;47.490;11.116;2023-08-30T11:28:44;8.80;;;8.30;;
21741;SDS011;11033;47.490;11.116;2023-08-30T11:31:22;8.30;;;7.90;;
21741;SDS011;11033;47.490;11.116;2023-08-30T11:33:54;8.70;;;8.00;;
21741;SDS011;11033;47.490;11.116;2023-08-30T11:36:21;7.88;;;7.47;;
21741;SDS011;11033;47.490;11.116;2023-08-30T11:38:47;8.23;;;7.72;;
21741;SDS011;11033;47.490;11.116;2023-08-30T11:41:12;7.68;;;7.28;;
21741;SDS011;11033;47.490;11.116;2023-08-30T11:43:38;8.40;;;7.90;;
21741;SDS011;11033;47.490;11.116;2023-08-30T11:46:03;8.40;;;7.90;;
21741;SDS011;11033;47.490;11.116;2023-08-30T11:48:28;8.30;;;7.90;;
21741;SDS011;11033;47.490;11.116;2023-08-30T11:50:54;7.55;;;7.15;;
21741;SDS011;11033;47.490;11.116;2023-08-30T11:53:19;6.93;;;6.63;;
21741;SDS011;11033;47.490;11.116;2023-08-30T11:55:44;8.07;;;7.47;;
21741;SDS011;11033;47.490;11.116;2023-08-30T11:58:10;7.90;;;7.40;;
21741;SDS011;11033;47.490;11.116;2023-08-30T12:00:35;9.03;;;8.53;;
21741;SDS011;11033;47.490;11.116;2023-08-30T12:03:00;8.20;;;7.60;;
21741;SDS011;11033;47.490;11.116;2023-08-30T12:05:26;8.00;;;7.60;;
21741;SDS011;11033;47.490;11.116;2023-08-30T12:07:51;7.83;;;7.43;;
21741;SDS011;11033;47.490;11.116;2023-08-30T12:10:17;8.02;;;7.72;;
21741;SDS011;11033;47.490;11.116;2023-08-30T12:12:46;7.65;;;7.35;;
21741;SDS011;11033;47.490;11.116;2023-08-30T12:15:11;7.80;;;7.40;;
21741;SDS011;11033;47.490;11.116;2023-08-30T12:17:36;7.75;;;7.35;;
21741;SDS011;11033;47.490;11.116;2023-08-30T12:20:02;7.57;;;7.20;;
21741;SDS011;11033;47.490;11.116;2023-08-30T12:22:40;7.40;;;6.90;;
21741;SDS011;11033;47.490;11.116;2023-08-30T12:25:18;7.70;;;7.20;;
21741;SDS011;11033;47.490;11.116;2023-08-30T12:27:43;7.15;;;6.80;;
21741;SDS011;11033;47.490;11.116;2023-08-30T12:30:09;7.80;;;7.40;;
21741;SDS011;11033;47.490;11.116;2023-08-30T12:32:34;7.57;;;7.18;;
21741;SDS011;11033;47.490;11.116;2023-08-30T12:34:59;7.33;;;7.03;;
21741;SDS011;11033;47.490;11.116;2023-08-30T12:37:24;8.37;;;7.87;;
21741;SDS011;11033;47.490;11.116;2023-08-30T12:39:49;7.57;;;7.23;;
21741;SDS011;11033;47.490;11.116;2023-08-30T12:42:15;7.03;;;6.73;;
21741;SDS011;11033;47.490;11.116;2023-08-30T12:44:40;6.73;;;6.43;;
21741;SDS011;11033;47.490;11.116;2023-08-30T12:47:05;7.70;;;7.30;;
21741;SDS011;11033;47.490;11.116;2023-08-30T12:49:30;7.90;;;7.50;;
21741;SDS011;11033;47.490;11.116;2023-08-30T12:51:55;7.80;;;7.47;;
21741;SDS011;11033;47.490;11.116;2023-08-30T12:54:20;7.53;;;7.10;;
21741;SDS011;11033;47.490;11.116;2023-08-30T12:56:46;7.05;;;6.63;;
21741;SDS011;11033;47.490;11.116;2023-08-30T12:59:11;7.67;;;7.23;;
21741;SDS011;11033;47.490;11.116;2023-08-30T13:01:36;6.85;;;6.45;;
21741;SDS011;11033;47.490;11.116;2023-08-30T13:04:01;7.03;;;6.63;;
21741;SDS011;11033;47.490;11.116;2023-08-30T13:06:26;7.10;;;6.70;;
21741;SDS011;11033;47.490;11.116;2023-08-30T13:08:52;6.90;;;6.57;;
21741;SDS011;11033;47.490;11.116;2023-08-30T13:11:17;6.20;;;6.00;;
21741;SDS011;11033;47.490;11.116;2023-08-30T13:13:42;6.87;;;6.57;;
21741;SDS011;11033;47.490;11.116;2023-08-30T13:16:07;7.20;;;6.90;;
21741;SDS011;11033;47.490;11.116;2023-08-30T13:18:32;7.47;;;6.97;;
21741;SDS011;11033;47.490;11.116;2023-08-30T13:20:57;7.13;;;6.82;;
21741;SDS011;11033;47.490;11.116;2023-08-30T13:23:22;7.87;;;7.47;;
21741;SDS011;11033;47.490;11.116;2023-08-30T13:25:48;8.37;;;7.97;;
21741;SDS011;11033;47.490;11.116;2023-08-30T13:28:14;8.98;;;8.48;;
21741;SDS011;11033;47.490;11.116;2023-08-30T13:30:43;9.03;;;8.63;;
21741;SDS011;11033;47.490;11.116;2023-08-30T13:33:08;9.57;;;9.18;;
21741;SDS011;11033;47.490;11.116;2023-08-30T13:35:34;8.60;;;8.20;;
21741;SDS011;11033;47.490;11.116;2023-08-30T13:37:59;9.90;;;9.47;;
21741;SDS011;11033;47.490;11.116;2023-08-30T13:40:24;8.60;;;8.23;;
21741;SDS011;11033;47.490;11.116;2023-08-30T13:42:50;8.23;;;7.82;;
21741;SDS011;11033;47.490;11.116;2023-08-30T13:45:15;8.67;;;8.30;;
21741;SDS011;11033;47.490;11.116;2023-08-30T13:47:41;9.07;;;8.47;;
21741;SDS011;11033;47.490;11.116;2023-08-30T13:50:06;9.53;;;8.93;;
21741;SDS011;11033;47.490;11.116;2023-08-30T13:52:32;8.70;;;8.30;;
21741;SDS011;11033;47.490;11.116;2023-08-30T13:54:58;8.73;;;8.23;;
21741;SDS011;11033;47.490;11.116;2023-08-30T13:57:23;8.43;;;7.93;;
21741;SDS011;11033;47.490;11.116;2023-08-30T13:59:48;8.00;;;7.50;;
21741;SDS011;11033;47.490;11.116;2023-08-30T14:02:13;8.27;;;7.87;;
21741;SDS011;11033;47.490;11.116;2023-08-30T14:04:38;8.40;;;7.90;;
21741;SDS011;11033;47.490;11.116;2023-08-30T14:07:04;7.57;;;7.27;;
21741;SDS011;11033;47.490;11.116;2023-08-30T14:09:29;8.55;;;8.15;;
21741;SDS011;11033;47.490;11.116;2023-08-30T14:11:54;8.57;;;8.17;;
21741;SDS011;11033;47.490;11.116;2023-08-30T14:14:20;8.48;;;8.07;;
21741;SDS011;11033;47.490;11.116;2023-08-30T14:16:45;8.30;;;7.90;;
21741;SDS011;11033;47.490;11.116;2023-08-30T14:19:10;7.97;;;7.57;;
21741;SDS011;11033;47.490;11.116;2023-08-30T14:21:35;7.53;;;7.22;;
21741;SDS011;11033;47.490;11.116;2023-08-30T14:24:01;7.43;;;7.03;;
21741;SDS011;11033;47.490;11.116;2023-08-30T14:26:26;6.77;;;6.40;;
21741;SDS011;11033;47.490;11.116;2023-08-30T14:28:51;7.67;;;7.17;;
21741;SDS011;11033;47.490;11.116;2023-08-30T14:31:16;8.13;;;7.50;;